Bogotá, Colombia

7:20 PM COT en Enero 25, 2015 (GMT -0500)
Las Villas | Change Station
CLOSE
Current Station
Estación meteorológica personal
Location: Bogotá, BOGOTá
Altura: 8392 ft
Estaciones meteorológicas cercanas

Alt 8392 ft 4.72 °N, 74.07 °W | Updated 41 seconds ago

Scattered Clouds
Nubes dispersas
61.7 ° F
Sensación térmica 61.7 ° F
N
3.2
Viento Variable Viento desde ESE

Hoy
Alta -- | Baja -- ° F
--% Posibilidad de precipitaciones
Ayer
Alta -- | Baja -- ° F
Precip. -- pul
6:11 AM 6:05 PM
Creciente, 37% visible
Presión 30.23 pul
Visibilidad 6.2 Millas
Nubes Nubes dispersas 2000 ft
Punto de rocío 54 ° F
Humedad 75%
Precipitaciones 0.00 pul
Espesor de la nieve No disponible.
UV 0 de una escala de 12
Polen No disponible.
Calidad del aire No disponible.
Flu Activity No disponible.
METAR SKBO 260000Z 28005KT 9999 SCT020 15/11 A3023

More Conditions Fewer Conditions

Presión 30.23 pul
Visibilidad 6.2 Millas
Nubes Nubes dispersas 2000 ft
Punto de rocío 54 ° F
Humedad 75%
Precipitaciones 0.00 pul
Espesor de la nieve No disponible.
UV 0 de una escala de 12
Polen No disponible.
Calidad del aire No disponible.
Flu Activity No disponible.
METAR SKBO 260000Z 28005KT 9999 SCT020 15/11 A3023

More Conditions Fewer Conditions

10-Day Weather Forecast

Almanac

Astronomía

Jan. 25, 2015 Salida Puesta
Hora real
Crepúsculo civil
Crepúsculo náutico
Crepúsculo astronómico
Luna
Horas de luz
Horas de luz
Tomorrow will be .
, % of the Moon is Illuminated

Extremos de hoy

Máximos del país Bajas del país

Community

WunderPhotos

Upload Photos

1,790,013 ¡fotos cargadas!

WunderBlogs® & News

Nearby

Calidad del aire

  Calidad del aire Índice AQ Contaminante
Not available.

Grosos de nieve

Estación Profundido Altura

Actividad de terremotos

Ciudad Distance Mag. Tiempo y dato
Magnitud mínima muestra es 2,5.

Temperaturas de aguas costeras

Lugar Temperatura

Estaciones meteorológicas cercanas